Time;durP1;ratioP1;P1;durP2;ratioP2;P2;SDS_P1;SDS_P2;PMS_P1;PMS_P2;Temp;Humidity;BMP_temperature;BMP_pressure;BME280_temperature;BME280_humidity;BME280_pressure;Samples;Min_cycle;Max_cycle;Signal;HPM_P1;HPM_P2
2022/07/05 00:00:12;;;;;;;;;;;;;;;22.46;51.86;101105.56;2075963;28;788;-47
2022/07/05 00:01:12;;;;;;;;;;;;;;;22.43;51.64;101102.06;2075862;28;1004;-46
2022/07/05 00:02:12;;;;;;;;;;;;;;;22.42;51.82;101108.38;2075243;28;1025;-50
2022/07/05 00:03:12;;;;;;;;;;;;;;;22.38;51.99;101107.63;2075483;28;996;-47
2022/07/05 00:04:13;;;;;;;;;;;;;;;22.40;51.91;101107.56;2075843;28;828;-49
2022/07/05 00:05:13;;;;;;;;;;;;;;;22.41;51.45;101110.22;2075872;28;832;-47
2022/07/05 00:06:13;;;;;;;;;;;;;;;22.45;51.48;101105.59;2075798;28;977;-48
2022/07/05 00:07:19;;;;;;;;;;;;;;;22.46;51.90;101115.47;2075865;28;895;-47
2022/07/05 00:08:19;;;;;;;;;;;;;;;22.46;52.08;101110.97;2075895;28;851;-47
2022/07/05 00:09:19;;;;;;;;;;;;;;;22.46;52.34;101110.06;2075781;28;824;-48
2022/07/05 00:10:19;;;;;;;;;;;;;;;22.44;53.12;101110.13;2075776;28;1028;-47
2022/07/05 00:11:20;;;;;;;;;;;;;;;22.42;53.68;101105.69;2075660;28;1960;-47
2022/07/05 00:12:21;;;;;;;;;;;;;;;22.41;54.10;101106.63;2075715;28;851;-46
2022/07/05 00:13:21;;;;;;;;;;;;;;;22.39;54.45;101111.19;2075720;28;918;-47
2022/07/05 00:14:22;;;;;;;;;;;;;;;22.38;55.05;101109.44;2075084;28;888;-47
2022/07/05 00:15:22;;;;;;;;;;;;;;;22.36;55.61;101110.41;2075113;28;954;-46
2022/07/05 00:16:22;;;;;;;;;;;;;;;22.35;55.36;101100.53;2075668;28;839;-47
2022/07/05 00:17:22;;;;;;;;;;;;;;;22.32;55.47;101106.06;2075723;28;813;-47
2022/07/05 00:18:22;;;;;;;;;;;;;;;22.31;55.75;101101.59;2074802;28;851;-46
2022/07/05 00:19:22;;;;;;;;;;;;;;;22.31;55.92;101107.00;2075709;28;990;-47
2022/07/05 00:20:23;;;;;;;;;;;;;;;22.34;56.12;101105.97;2075708;28;930;-48
2022/07/05 00:21:23;;;;;;;;;;;;;;;22.34;54.92;101109.56;2075703;28;863;-47
2022/07/05 00:22:23;;;;;;;;;;;;;;;22.38;54.86;101113.03;2075654;28;1005;-47
2022/07/05 00:23:23;;;;;;;;;;;;;;;22.41;55.41;101107.53;2075674;28;949;-48
2022/07/05 00:24:24;;;;;;;;;;;;;;;22.43;54.93;101105.66;2075612;28;966;-47
2022/07/05 00:25:24;;;;;;;;;;;;;;;22.44;54.20;101103.84;2075609;28;1009;-47
2022/07/05 00:26:24;;;;;;;;;;;;;;;22.44;53.70;101101.16;2075689;28;764;-47
2022/07/05 00:27:24;;;;;;;;;;;;;;;22.40;53.27;101103.06;2075608;28;1025;-49
2022/07/05 00:28:25;;;;;;;;;;;;;;;22.40;53.03;101100.34;2075617;28;1036;-47
2022/07/05 00:29:25;;;;;;;;;;;;;;;22.36;52.75;101104.09;2075577;28;1009;-47
2022/07/05 00:30:26;;;;;;;;;;;;;;;22.31;52.64;101104.28;2075604;28;1033;-46
2022/07/05 00:31:26;;;;;;;;;;;;;;;22.30;52.71;101104.31;2075525;28;1886;-47
2022/07/05 00:32:26;;;;;;;;;;;;;;;22.27;51.61;101104.44;2075606;28;776;-47
2022/07/05 00:33:26;;;;;;;;;;;;;;;22.24;51.71;101100.06;2074685;28;1017;-46
2022/07/05 00:34:26;;;;;;;;;;;;;;;22.20;51.50;101103.78;2075589;28;844;-47
2022/07/05 00:35:26;;;;;;;;;;;;;;;22.23;50.70;101105.50;2075546;28;982;-47
2022/07/05 00:36:27;;;;;;;;;;;;;;;22.17;50.67;101101.22;2075519;28;1041;-47
2022/07/05 00:37:27;;;;;;;;;;;;;;;22.14;50.99;101107.56;2075550;28;819;-47
2022/07/05 00:38:27;;;;;;;;;;;;;;;22.21;50.32;101101.03;2075554;28;954;-48
2022/07/05 00:39:27;;;;;;;;;;;;;;;22.25;50.41;101104.50;2075630;28;800;-47
2022/07/05 00:40:28;;;;;;;;;;;;;;;22.27;49.57;101105.34;2075541;28;844;-47
2022/07/05 00:41:28;;;;;;;;;;;;;;;22.31;49.74;101103.41;2075553;28;773;-48
2022/07/05 00:42:28;;;;;;;;;;;;;;;22.29;49.64;101100.75;2075553;28;765;-49
2022/07/05 00:43:28;;;;;;;;;;;;;;;22.29;49.31;101113.34;2075535;28;856;-47
2022/07/05 00:44:34;;;;;;;;;;;;;;;22.27;49.43;101105.34;2075496;28;1016;-46
2022/07/05 00:45:34;;;;;;;;;;;;;;;22.21;50.27;101100.16;2075515;28;865;-46
2022/07/05 00:46:35;;;;;;;;;;;;;;;22.23;50.06;101100.09;2075469;28;986;-46
2022/07/05 00:47:35;;;;;;;;;;;;;;;22.17;49.55;101095.81;2074821;28;788;-47
2022/07/05 00:48:36;;;;;;;;;;;;;;;22.18;49.65;101098.44;2074856;28;857;-47
2022/07/05 00:49:36;;;;;;;;;;;;;;;22.16;50.34;101099.44;2074517;28;978;-48
2022/07/05 00:50:37;;;;;;;;;;;;;;;22.20;50.05;101096.56;2075454;28;765;-46
2022/07/05 00:51:38;;;;;;;;;;;;;;;22.21;49.92;101098.31;2075366;28;1941;-48
2022/07/05 00:52:38;;;;;;;;;;;;;;;22.26;50.10;101097.28;2075476;28;764;-48
2022/07/05 00:53:39;;;;;;;;;;;;;;;22.29;50.36;101099.88;2075339;28;1005;-49
2022/07/05 00:54:39;;;;;;;;;;;;;;;22.33;49.94;101098.81;2075191;28;784;-49
2022/07/05 00:55:39;;;;;;;;;;;;;;;22.39;49.51;101106.69;2075253;28;1079;-48
2022/07/05 00:56:39;;;;;;;;;;;;;;;22.37;50.10;101100.47;2075483;28;907;-47
2022/07/05 00:57:40;;;;;;;;;;;;;;;22.36;50.69;101113.09;2075391;28;953;-46
2022/07/05 00:58:40;;;;;;;;;;;;;;;22.34;50.25;101105.97;2075401;28;836;-47
2022/07/05 00:59:40;;;;;;;;;;;;;;;22.31;50.80;101112.38;2075407;28;792;-47
2022/07/05 01:00:40;;;;;;;;;;;;;;;22.29;51.01;101105.25;2075517;28;688;-47
2022/07/05 01:01:41;;;;;;;;;;;;;;;22.25;50.50;101107.22;2075381;28;1036;-47
2022/07/05 01:02:41;;;;;;;;;;;;;;;22.23;50.82;101102.78;2075497;28;969;-46
2022/07/05 01:03:41;;;;;;;;;;;;;;;22.20;50.81;101101.97;2075344;28;1012;-47
2022/07/05 01:04:41;;;;;;;;;;;;;;;22.24;51.15;101097.34;2074475;28;1029;-48
2022/07/05 01:05:41;;;;;;;;;;;;;;;22.26;50.68;101103.56;2075360;28;906;-47
2022/07/05 01:06:43;;;;;;;;;;;;;;;22.33;50.57;101104.22;2074704;28;891;-47
2022/07/05 01:07:43;;;;;;;;;;;;;;;22.31;50.80;101098.00;2074648;28;1037;-47
2022/07/05 01:08:44;;;;;;;;;;;;;;;22.31;50.70;101100.69;2075310;28;1024;-49
2022/07/05 01:09:44;;;;;;;;;;;;;;;22.27;50.57;101099.94;2075303;28;848;-47
2022/07/05 01:10:44;;;;;;;;;;;;;;;22.26;51.17;101095.47;2075252;28;1910;-46
2022/07/05 01:11:48;;;;;;;;;;;;;;;22.23;50.94;101097.38;2075312;28;1036;-46
2022/07/05 01:12:48;;;;;;;;;;;;;;;22.21;51.36;101102.84;2075175;28;1393;-48
2022/07/05 01:13:48;;;;;;;;;;;;;;;22.18;50.96;101095.75;2075311;28;974;-46
2022/07/05 01:14:49;;;;;;;;;;;;;;;22.17;51.08;101099.38;2074631;28;796;-46
2022/07/05 01:15:49;;;;;;;;;;;;;;;22.16;51.54;101099.44;2074776;28;911;-46
2022/07/05 01:16:49;;;;;;;;;;;;;;;22.14;50.85;101096.78;2075232;28;748;-46
2022/07/05 01:17:50;;;;;;;;;;;;;;;22.16;50.28;101104.84;2075397;28;796;-46
2022/07/05 01:18:50;;;;;;;;;;;;;;;22.15;50.76;101100.38;2075280;28;839;-46
2022/07/05 01:19:51;;;;;;;;;;;;;;;22.17;50.30;101104.78;2075243;28;950;-47
2022/07/05 01:20:52;;;;;;;;;;;;;;;22.21;49.97;101108.25;2074351;28;920;-47
2022/07/05 01:21:52;;;;;;;;;;;;;;;22.24;49.88;101105.44;2075245;28;939;-47
2022/07/05 01:22:56;;;;;;;;;;;;;;;22.25;50.23;101111.72;2075208;28;1235;-47
2022/07/05 01:23:56;;;;;;;;;;;;;;;22.30;49.26;101101.63;2075262;28;803;-49
2022/07/05 01:24:56;;;;;;;;;;;;;;;22.34;49.97;101101.47;2075217;28;974;-47
2022/07/05 01:25:58;;;;;;;;;;;;;;;22.35;49.38;101095.16;2075188;28;886;-47
2022/07/05 01:26:58;;;;;;;;;;;;;;;22.37;49.40;101092.38;2075258;28;811;-48
2022/07/05 01:27:59;;;;;;;;;;;;;;;22.34;49.48;101095.19;2074703;28;3216;-49
2022/07/05 01:28:59;;;;;;;;;;;;;;;22.29;49.51;101099.88;2075193;28;970;-46
2022/07/05 01:30:00;;;;;;;;;;;;;;;22.26;49.97;101092.78;2075231;28;1089;-47
2022/07/05 01:31:01;;;;;;;;;;;;;;;22.25;49.56;101101.81;2075089;28;1920;-48
2022/07/05 01:32:01;;;;;;;;;;;;;;;22.21;50.08;101097.47;2075170;28;800;-47
2022/07/05 01:33:02;;;;;;;;;;;;;;;22.24;49.62;101101.84;2075099;28;1009;-46
2022/07/05 01:34:02;;;;;;;;;;;;;;;22.20;49.65;101096.56;2075175;28;768;-47
2022/07/05 01:35:03;;;;;;;;;;;;;;;22.17;50.74;101096.69;2075144;28;1394;-46
2022/07/05 01:36:03;;;;;;;;;;;;;;;22.17;50.21;101093.97;2074196;28;1044;-47
2022/07/05 01:37:03;;;;;;;;;;;;;;;22.19;50.05;101091.25;2075133;28;981;-48
2022/07/05 01:38:04;;;;;;;;;;;;;;;22.17;49.71;101090.41;2075102;28;990;-48
2022/07/05 01:39:05;;;;;;;;;;;;;;;22.23;50.04;101086.59;2074461;28;1551;-47
2022/07/05 01:40:06;;;;;;;;;;;;;;;22.28;50.00;101093.59;2066399;28;1017;-47
2022/07/05 01:41:09;;;;;;;;;;;;;;;22.30;50.04;101086.34;2074492;28;1054;-47
2022/07/05 01:42:09;;;;;;;;;;;;;;;22.31;49.48;101095.31;2075149;28;800;-48
2022/07/05 01:43:09;;;;;;;;;;;;;;;22.34;49.96;101095.19;2075220;28;831;-48
2022/07/05 01:44:10;;;;;;;;;;;;;;;22.29;50.00;101092.66;2075091;28;1041;-48
2022/07/05 01:45:11;;;;;;;;;;;;;;;22.27;50.15;101088.25;2075115;28;962;-47
2022/07/05 01:46:12;;;;;;;;;;;;;;;22.23;50.35;101084.78;2075093;28;985;-46
2022/07/05 01:47:13;;;;;;;;;;;;;;;22.20;50.49;101083.06;2075012;28;1056;-46
2022/07/05 01:48:14;;;;;;;;;;;;;;;22.19;50.83;101086.72;2074388;28;942;-48
2022/07/05 01:49:16;;;;;;;;;;;;;;;22.18;50.89;101090.34;2074583;28;721;-47
2022/07/05 01:50:19;;;;;;;;;;;;;;;22.22;50.47;101088.44;2075062;28;929;-47
2022/07/05 01:51:22;;;;;;;;;;;;;;;22.25;51.33;101093.72;2074373;28;1973;-47
2022/07/05 01:52:24;;;;;;;;;;;;;;;22.25;50.98;101085.63;2074535;28;1064;-46
2022/07/05 01:53:27;;;;;;;;;;;;;;;22.30;51.27;101089.03;2075072;28;819;-49
2022/07/05 01:54:28;;;;;;;;;;;;;;;22.35;50.69;101087.06;2075046;28;982;-47
2022/07/05 01:55:28;;;;;;;;;;;;;;;22.38;50.89;101088.75;2074766;28;1323;-48
2022/07/05 01:56:29;;;;;;;;;;;;;;;22.36;50.60;101090.63;2075091;28;954;-47
2022/07/05 01:57:29;;;;;;;;;;;;;;;22.36;50.97;101090.63;2075036;28;1001;-49
2022/07/05 01:58:30;;;;;;;;;;;;;;;22.33;51.73;101088.03;2075007;28;989;-47
2022/07/05 01:59:31;;;;;;;;;;;;;;;22.29;51.73;101091.78;2074989;28;1041;-48
2022/07/05 02:00:40;;;;;;;;;;;;;;;22.29;51.13;101089.06;2074995;28;773;-46
2022/07/05 02:01:41;;;;;;;;;;;;;;;22.24;51.13;101089.25;2075070;28;919;-46
2022/07/05 02:02:41;;;;;;;;;;;;;;;22.23;51.95;101082.09;2075028;28;780;-47
2022/07/05 02:03:43;;;;;;;;;;;;;;;22.21;52.30;101083.97;2075076;28;812;-46
2022/07/05 02:04:43;;;;;;;;;;;;;;;22.23;51.58;101078.50;2074934;28;978;-49
2022/07/05 02:05:44;;;;;;;;;;;;;;;22.27;51.33;101082.84;2074422;28;819;-47
2022/07/05 02:06:45;;;;;;;;;;;;;;;22.28;51.74;101079.22;2074833;28;764;-47
2022/07/05 02:07:48;;;;;;;;;;;;;;;22.29;51.33;101084.56;2074032;28;904;-47
2022/07/05 02:08:49;;;;;;;;;;;;;;;22.31;51.51;101087.19;2075149;28;890;-47
2022/07/05 02:09:49;;;;;;;;;;;;;;;22.31;52.75;101085.41;2075099;28;946;-47
2022/07/05 02:10:49;;;;;;;;;;;;;;;22.28;52.80;101087.31;2074900;28;1969;-47
2022/07/05 02:11:50;;;;;;;;;;;;;;;22.28;53.78;101085.50;2074984;28;701;-45
2022/07/05 02:12:50;;;;;;;;;;;;;;;22.26;54.06;101090.09;2074937;28;986;-46
2022/07/05 02:13:50;;;;;;;;;;;;;;;22.24;54.97;101083.88;2074968;28;892;-47
2022/07/05 02:14:50;;;;;;;;;;;;;;;22.23;55.69;101092.00;2074971;28;855;-46
2022/07/05 02:15:50;;;;;;;;;;;;;;;22.22;55.61;101077.63;2074974;28;1017;-46
2022/07/05 02:16:50;;;;;;;;;;;;;;;22.25;55.80;101079.31;2074927;28;835;-46
2022/07/05 02:17:50;;;;;;;;;;;;;;;22.24;55.67;101080.25;2074952;28;1056;-47
2022/07/05 02:18:51;;;;;;;;;;;;;;;22.21;55.39;101083.97;2074934;28;1037;-46
2022/07/05 02:19:51;;;;;;;;;;;;;;;22.22;55.93;101083.03;2074918;28;931;-48
2022/07/05 02:20:51;;;;;;;;;;;;;;;22.21;55.67;101079.44;2074934;28;789;-47
2022/07/05 02:21:51;;;;;;;;;;;;;;;22.27;55.38;101081.06;2074894;28;1033;-47
2022/07/05 02:22:51;;;;;;;;;;;;;;;22.24;55.92;101081.16;2074012;28;1001;-48
2022/07/05 02:23:52;;;;;;;;;;;;;;;22.30;55.35;101071.94;2074952;28;974;-48
2022/07/05 02:24:52;;;;;;;;;;;;;;;22.31;54.80;101074.59;2074895;28;978;-48
2022/07/05 02:25:52;;;;;;;;;;;;;;;22.30;54.88;101077.34;2074887;28;986;-47
2022/07/05 02:26:52;;;;;;;;;;;;;;;22.30;54.91;101085.44;2074878;28;993;-48
2022/07/05 02:27:52;;;;;;;;;;;;;;;22.27;54.51;101088.25;2074938;28;804;-48
2022/07/05 02:28:53;;;;;;;;;;;;;;;22.24;54.85;101089.25;2075031;28;785;-47
2022/07/05 02:29:53;;;;;;;;;;;;;;;22.19;53.88;101084.00;2074921;28;836;-47
2022/07/05 02:30:53;;;;;;;;;;;;;;;22.17;53.75;101090.41;2074815;28;1890;-46
2022/07/05 02:31:53;;;;;;;;;;;;;;;22.16;53.54;101088.66;2074862;28;1033;-46
2022/07/05 02:32:53;;;;;;;;;;;;;;;22.14;53.33;101094.09;2074911;28;827;-48
2022/07/05 02:33:53;;;;;;;;;;;;;;;22.13;52.33;101086.06;2074869;28;911;-47
2022/07/05 02:34:54;;;;;;;;;;;;;;;22.09;52.12;101089.81;2074988;28;978;-47
2022/07/05 02:35:54;;;;;;;;;;;;;;;22.09;51.88;101085.28;2074855;28;776;-47
2022/07/05 02:36:54;;;;;;;;;;;;;;;22.06;51.65;101091.69;2074813;28;1007;-47
2022/07/05 02:37:54;;;;;;;;;;;;;;;22.06;51.36;101090.81;2074867;28;823;-48
2022/07/05 02:38:54;;;;;;;;;;;;;;;22.12;50.82;101095.09;2073999;28;890;-48
2022/07/05 02:39:54;;;;;;;;;;;;;;;22.14;50.71;101088.69;2074880;28;816;-47
2022/07/05 02:40:54;;;;;;;;;;;;;;;22.16;50.55;101088.66;2074815;28;982;-47
2022/07/05 02:41:55;;;;;;;;;;;;;;;22.15;49.99;101086.88;2074125;28;739;-48
2022/07/05 02:42:55;;;;;;;;;;;;;;;22.15;50.32;101086.88;2074281;28;811;-47
2022/07/05 02:43:55;;;;;;;;;;;;;;;22.13;50.41;101083.38;2074800;28;856;-47
2022/07/05 02:44:55;;;;;;;;;;;;;;;22.12;50.07;101073.50;2074830;28;986;-46
2022/07/05 02:45:55;;;;;;;;;;;;;;;22.09;49.34;101081.72;2074798;28;772;-47
2022/07/05 02:46:55;;;;;;;;;;;;;;;22.04;49.75;101080.06;2074797;28;971;-47
2022/07/05 02:47:57;;;;;;;;;;;;;;;22.04;50.02;101080.06;2074808;28;847;-46
2022/07/05 02:48:57;;;;;;;;;;;;;;;22.04;49.73;101079.19;2074779;28;982;-47
2022/07/05 02:50:07;;;;;;;;;;;;;;;22.06;50.30;101082.72;2074809;28;840;-48
2022/07/05 02:51:07;;;;;;;;;;;;;;;22.09;50.26;101076.31;2074709;28;1902;-47
2022/07/05 02:52:07;;;;;;;;;;;;;;;22.13;49.44;101086.06;2074789;28;843;-46
2022/07/05 02:53:07;;;;;;;;;;;;;;;22.15;50.60;101084.19;2074772;28;802;-49
2022/07/05 02:54:07;;;;;;;;;;;;;;;22.15;50.08;101078.78;2074054;28;1084;-47
2022/07/05 02:55:08;;;;;;;;;;;;;;;22.20;49.74;101080.38;2074565;28;890;-47
2022/07/05 02:56:08;;;;;;;;;;;;;;;22.23;50.40;101081.19;2074628;28;1336;-47
2022/07/05 02:57:08;;;;;;;;;;;;;;;22.23;50.18;101086.59;2074777;28;970;-48
2022/07/05 02:58:08;;;;;;;;;;;;;;;22.18;50.30;101084.09;2074782;28;966;-47
2022/07/05 02:59:08;;;;;;;;;;;;;;;22.16;50.68;101080.56;2074792;28;823;-46
2022/07/05 03:00:09;;;;;;;;;;;;;;;22.12;50.61;101087.00;2074805;28;772;-46
2022/07/05 03:01:09;;;;;;;;;;;;;;;22.11;50.79;101096.03;2074707;28;1119;-48
2022/07/05 03:02:09;;;;;;;;;;;;;;;22.08;51.34;101090.75;2074761;28;847;-46
2022/07/05 03:03:09;;;;;;;;;;;;;;;22.04;51.40;101093.53;2074752;28;1157;-47
2022/07/05 03:04:09;;;;;;;;;;;;;;;22.06;50.87;101091.69;2074754;28;1037;-48
2022/07/05 03:05:10;;;;;;;;;;;;;;;22.11;50.79;101096.88;2074887;28;819;-47
2022/07/05 03:06:10;;;;;;;;;;;;;;;22.14;50.42;101093.22;2074763;28;768;-49
2022/07/05 03:07:10;;;;;;;;;;;;;;;22.13;51.45;101095.03;2074763;28;891;-47
2022/07/05 03:08:10;;;;;;;;;;;;;;;22.16;50.32;101102.13;2074718;28;974;-47
2022/07/05 03:09:10;;;;;;;;;;;;;;;22.15;50.74;101098.53;2074749;28;753;-48
2022/07/05 03:10:11;;;;;;;;;;;;;;;22.14;50.70;101088.69;2073804;28;893;-47
2022/07/05 03:11:11;;;;;;;;;;;;;;;22.10;50.86;101081.63;2074718;28;1914;-46
2022/07/05 03:12:11;;;;;;;;;;;;;;;22.09;51.08;101077.19;2074721;28;978;-46
2022/07/05 03:13:11;;;;;;;;;;;;;;;22.11;50.91;101075.31;2074748;28;1045;-47
2022/07/05 03:14:11;;;;;;;;;;;;;;;22.06;51.46;101080.03;2074743;28;845;-46
2022/07/05 03:15:11;;;;;;;;;;;;;;;22.04;51.14;101074.66;2074697;28;816;-46
2022/07/05 03:16:11;;;;;;;;;;;;;;;22.05;51.20;101072.88;2074753;28;978;-48
2022/07/05 03:17:12;;;;;;;;;;;;;;;22.04;51.90;101074.66;2075096;28;982;-47
2022/07/05 03:18:12;;;;;;;;;;;;;;;22.01;51.60;101076.59;2076154;28;1142;-46
2022/07/05 03:19:12;;;;;;;;;;;;;;;22.01;51.68;101076.59;2076170;28;847;-47
2022/07/05 03:20:12;;;;;;;;;;;;;;;22.05;50.82;101084.53;2076152;28;664;-47
2022/07/05 03:21:12;;;;;;;;;;;;;;;22.11;50.81;101079.84;2076153;28;843;-48
2022/07/05 03:22:12;;;;;;;;;;;;;;;22.08;50.97;101083.50;2076118;28;974;-47
2022/07/05 03:23:13;;;;;;;;;;;;;;;22.12;50.69;101076.22;2076149;28;768;-48
2022/07/05 03:24:13;;;;;;;;;;;;;;;22.18;50.05;101076.00;2076088;28;769;-48
2022/07/05 03:25:13;;;;;;;;;;;;;;;22.18;50.29;101074.16;2076119;28;982;-47
2022/07/05 03:26:13;;;;;;;;;;;;;;;22.21;50.35;101078.56;2075179;28;973;-49
2022/07/05 03:27:13;;;;;;;;;;;;;;;22.21;49.67;101073.19;2075410;28;1053;-48
2022/07/05 03:28:14;;;;;;;;;;;;;;;22.18;49.71;101081.38;2074719;28;2740;-47
2022/07/05 03:29:14;;;;;;;;;;;;;;;22.16;49.66;101080.56;2076431;28;895;-47
2022/07/05 03:30:14;;;;;;;;;;;;;;;22.12;50.10;101079.78;2076103;28;780;-47
2022/07/05 03:31:14;;;;;;;;;;;;;;;22.09;50.66;101084.41;2076010;28;1886;-48
2022/07/05 03:32:14;;;;;;;;;;;;;;;22.09;50.34;101068.22;2076095;28;1029;-46
2022/07/05 03:33:15;;;;;;;;;;;;;;;22.09;50.38;101084.41;2075395;28;1016;-47
2022/07/05 03:34:15;;;;;;;;;;;;;;;22.09;49.83;101070.91;2075396;28;807;-48
2022/07/05 03:35:15;;;;;;;;;;;;;;;22.05;49.82;101079.13;2075452;28;761;-47
2022/07/05 03:36:15;;;;;;;;;;;;;;;22.06;50.35;101083.59;2076028;28;776;-47
2022/07/05 03:37:15;;;;;;;;;;;;;;;22.03;50.22;101078.28;2076033;28;757;-47
2022/07/05 03:38:16;;;;;;;;;;;;;;;22.10;49.84;101086.16;2076001;28;978;-48
2022/07/05 03:39:16;;;;;;;;;;;;;;;22.12;49.76;101078.91;2075986;28;795;-47
2022/07/05 03:40:16;;;;;;;;;;;;;;;22.11;50.26;101078.00;2076022;28;780;-47
2022/07/05 03:41:17;;;;;;;;;;;;;;;22.17;50.02;101077.78;2075357;28;976;-49
2022/07/05 03:42:17;;;;;;;;;;;;;;;22.17;50.30;101082.31;2075921;28;1062;-49
2022/07/05 03:43:17;;;;;;;;;;;;;;;22.16;50.66;101081.41;2076034;28;740;-48
2022/07/05 03:44:17;;;;;;;;;;;;;;;22.14;50.27;101085.13;2075943;28;1052;-46
2022/07/05 03:45:17;;;;;;;;;;;;;;;22.11;50.26;101079.84;2076095;28;977;-46
2022/07/05 03:46:18;;;;;;;;;;;;;;;22.08;50.65;101085.34;2075977;28;998;-47
2022/07/05 03:47:19;;;;;;;;;;;;;;;22.05;50.52;101087.22;2075954;28;1057;-46
2022/07/05 03:48:19;;;;;;;;;;;;;;;22.05;50.87;101079.13;2075909;28;982;-46
2022/07/05 03:49:19;;;;;;;;;;;;;;;22.06;50.93;101083.59;2075954;28;782;-49
2022/07/05 03:50:19;;;;;;;;;;;;;;;22.09;50.81;101079.88;2075966;28;898;-49
2022/07/05 03:51:19;;;;;;;;;;;;;;;22.12;51.14;101081.59;2075864;28;1894;-49
2022/07/05 03:52:20;;;;;;;;;;;;;;;22.16;50.73;101088.66;2075950;28;889;-47
2022/07/05 03:53:20;;;;;;;;;;;;;;;22.15;50.54;101085.06;2075951;28;760;-48
2022/07/05 03:54:20;;;;;;;;;;;;;;;22.19;51.54;101088.53;2075881;28;1049;-48
2022/07/05 03:55:20;;;;;;;;;;;;;;;22.22;51.09;101091.13;2075802;28;1191;-48
2022/07/05 03:56:22;;;;;;;;;;;;;;;22.23;50.96;101086.59;2075751;28;1154;-47
2022/07/05 03:57:23;;;;;;;;;;;;;;;22.20;51.08;101083.06;2074976;28;893;-48
2022/07/05 03:58:23;;;;;;;;;;;;;;;22.20;51.03;101077.69;2075988;28;1211;-47
2022/07/05 03:59:23;;;;;;;;;;;;;;;22.16;51.40;101081.41;2075888;28;796;-47
2022/07/05 04:00:23;;;;;;;;;;;;;;;22.15;51.43;101084.19;2075866;28;772;-46
2022/07/05 04:01:23;;;;;;;;;;;;;;;22.15;51.45;101082.34;2075836;28;1021;-47
2022/07/05 04:02:23;;;;;;;;;;;;;;;22.22;51.34;101080.34;2075824;28;776;-47
2022/07/05 04:03:23;;;;;;;;;;;;;;;22.96;49.94;101082.06;2075834;28;990;-48
2022/07/05 04:04:24;;;;;;;;;;;;;;;23.19;49.18;101081.13;2075840;28;985;-47
2022/07/05 04:05:24;;;;;;;;;;;;;;;23.35;48.66;101083.25;2075979;28;756;-47
2022/07/05 04:06:24;;;;;;;;;;;;;;;23.48;48.53;101080.91;2075938;28;788;-46
2022/07/05 04:07:24;;;;;;;;;;;;;;;23.56;48.11;101089.56;2075852;28;772;-47
2022/07/05 04:08:25;;;;;;;;;;;;;;;23.64;48.13;101073.00;2075793;28;863;-48
2022/07/05 04:09:25;;;;;;;;;;;;;;;23.70;48.10;101078.16;2075766;28;847;-48
2022/07/05 04:10:25;;;;;;;;;;;;;;;23.76;47.58;101067.09;2075837;28;819;-47
2022/07/05 04:11:25;;;;;;;;;;;;;;;23.83;47.36;101067.72;2075769;28;1911;-47
2022/07/05 04:12:25;;;;;;;;;;;;;;;23.83;48.15;101070.41;2075744;28;819;-48
2022/07/05 04:13:25;;;;;;;;;;;;;;;23.92;48.24;101066.41;2074815;28;839;-47
2022/07/05 04:14:25;;;;;;;;;;;;;;;23.95;48.48;101064.44;2075768;28;926;-47
2022/07/05 04:15:26;;;;;;;;;;;;;;;23.99;49.29;101059.81;2075740;28;973;-47
2022/07/05 04:16:26;;;;;;;;;;;;;;;24.01;49.93;101060.63;2075731;28;1001;-46
2022/07/05 04:17:26;;;;;;;;;;;;;;;24.07;50.08;101064.88;2075735;28;760;-46
2022/07/05 04:18:26;;;;;;;;;;;;;;;24.07;50.41;101068.50;2075702;28;847;-47
2022/07/05 04:19:26;;;;;;;;;;;;;;;24.11;50.73;101058.38;2075725;28;993;-47
2022/07/05 04:20:26;;;;;;;;;;;;;;;24.16;50.14;101063.59;2075843;28;713;-47
2022/07/05 04:21:27;;;;;;;;;;;;;;;24.13;50.61;101067.31;2075696;28;957;-47
2022/07/05 04:22:27;;;;;;;;;;;;;;;24.16;50.49;101069.88;2075704;28;989;-47
2022/07/05 04:23:27;;;;;;;;;;;;;;;24.13;50.49;101061.91;2075721;28;919;-48
2022/07/05 04:24:27;;;;;;;;;;;;;;;24.09;50.66;101061.19;2075677;28;970;-47
2022/07/05 04:25:27;;;;;;;;;;;;;;;24.05;50.51;101062.25;2075651;28;769;-48
2022/07/05 04:26:29;;;;;;;;;;;;;;;24.05;50.62;101064.97;2075642;28;911;-47
2022/07/05 04:27:29;;;;;;;;;;;;;;;24.09;50.53;101063.88;2074928;28;977;-48
2022/07/05 04:28:32;;;;;;;;;;;;;;;24.05;50.28;101067.69;2074745;28;970;-47
2022/07/05 04:29:32;;;;;;;;;;;;;;;24.03;50.06;101064.16;2073836;28;1077;-47
2022/07/05 04:30:32;;;;;;;;;;;;;;;24.05;49.17;101067.69;2075020;28;1103;-47
2022/07/05 04:31:32;;;;;;;;;;;;;;;24.04;49.51;101065.03;2075527;28;1944;-46
2022/07/05 04:32:33;;;;;;;;;;;;;;;24.03;49.33;101069.56;2075577;28;986;-47
2022/07/05 04:33:33;;;;;;;;;;;;;;;24.07;48.62;101065.78;2075607;28;994;-47
2022/07/05 04:34:34;;;;;;;;;;;;;;;24.06;47.89;101060.41;2075541;28;1038;-48
2022/07/05 04:35:34;;;;;;;;;;;;;;;24.02;48.47;101070.50;2075576;28;831;-46
2022/07/05 04:36:34;;;;;;;;;;;;;;;24.02;47.76;101067.81;2075776;28;745;-47
2022/07/05 04:37:35;;;;;;;;;;;;;;;24.09;47.05;101068.41;2075563;28;852;-48
2022/07/05 04:38:35;;;;;;;;;;;;;;;24.09;47.25;101066.59;2075533;28;855;-48
2022/07/05 04:39:35;;;;;;;;;;;;;;;24.10;45.85;101072.88;2075528;28;796;-48
2022/07/05 04:40:35;;;;;;;;;;;;;;;24.07;46.35;101071.19;2075488;28;859;-47
2022/07/05 04:41:35;;;;;;;;;;;;;;;24.08;45.93;101069.34;2075529;28;851;-47
2022/07/05 04:42:36;;;;;;;;;;;;;;;24.03;46.63;101065.97;2075606;28;844;-48
2022/07/05 04:43:36;;;;;;;;;;;;;;;24.06;45.72;101073.94;2075482;28;1022;-47
2022/07/05 04:44:36;;;;;;;;;;;;;;;24.08;45.70;101067.53;2074556;28;1005;-47
2022/07/05 04:45:36;;;;;;;;;;;;;;;24.06;46.03;101064.03;2075471;28;732;-47
2022/07/05 04:46:36;;;;;;;;;;;;;;;24.06;45.50;101072.13;2075494;28;804;-46
2022/07/05 04:47:36;;;;;;;;;;;;;;;24.08;45.29;101072.06;2075473;28;863;-47
2022/07/05 04:48:36;;;;;;;;;;;;;;;24.10;45.03;101072.88;2074770;28;949;-47
2022/07/05 04:49:37;;;;;;;;;;;;;;;24.09;45.03;101065.69;2074907;28;830;-49
2022/07/05 04:50:37;;;;;;;;;;;;;;;24.12;45.06;101063.75;2075461;28;859;-47
2022/07/05 04:51:37;;;;;;;;;;;;;;;24.15;45.26;101067.22;2075525;28;1906;-48
2022/07/05 04:52:37;;;;;;;;;;;;;;;24.16;44.70;101069.88;2075415;28;969;-48
2022/07/05 04:53:37;;;;;;;;;;;;;;;24.15;44.77;101072.66;2075433;28;857;-48
2022/07/05 04:54:37;;;;;;;;;;;;;;;24.22;44.83;101066.00;2075381;28;1065;-48
2022/07/05 04:55:38;;;;;;;;;;;;;;;24.10;44.69;101071.06;2075275;28;1096;-48
2022/07/05 04:56:38;;;;;;;;;;;;;;;24.13;45.21;101079.03;2075425;28;871;-48
2022/07/05 04:57:39;;;;;;;;;;;;;;;24.11;45.35;101071.91;2075405;28;907;-48
2022/07/05 04:58:39;;;;;;;;;;;;;;;24.10;45.52;101064.75;2075409;28;918;-47
2022/07/05 04:59:42;;;;;;;;;;;;;;;24.08;45.80;101072.06;2075386;28;827;-48
2022/07/05 05:00:42;;;;;;;;;;;;;;;24.11;45.27;101072.81;2074489;28;890;-46
2022/07/05 05:01:42;;;;;;;;;;;;;;;24.19;45.47;101072.47;2075346;28;1001;-48
2022/07/05 05:02:42;;;;;;;;;;;;;;;24.15;44.97;101073.53;2075354;28;982;-47
2022/07/05 05:03:42;;;;;;;;;;;;;;;24.16;45.38;101071.69;2075373;28;754;-46
2022/07/05 05:04:42;;;;;;;;;;;;;;;24.17;45.76;101065.34;2075349;28;1030;-48
2022/07/05 05:05:42;;;;;;;;;;;;;;;24.19;45.36;101068.84;2075367;28;809;-49
2022/07/05 05:06:43;;;;;;;;;;;;;;;24.23;45.03;101068.66;2075350;28;852;-47
2022/07/05 05:07:43;;;;;;;;;;;;;;;24.23;45.52;101067.78;2075344;28;1020;-47
2022/07/05 05:08:43;;;;;;;;;;;;;;;24.22;45.78;101075.03;2075354;28;989;-47
2022/07/05 05:09:44;;;;;;;;;;;;;;;24.23;45.45;101076.78;2075313;28;827;-48
2022/07/05 05:10:44;;;;;;;;;;;;;;;24.26;45.70;101064.94;2075302;28;863;-47
2022/07/05 05:11:44;;;;;;;;;;;;;;;24.28;45.46;101069.34;2075209;28;1910;-45
2022/07/05 05:12:44;;;;;;;;;;;;;;;24.28;45.92;101063.03;2075271;28;981;-47
2022/07/05 05:13:46;;;;;;;;;;;;;;;24.31;45.26;101072.84;2075306;28;760;-46
2022/07/05 05:14:46;;;;;;;;;;;;;;;24.30;45.61;101068.41;2075293;28;799;-46
2022/07/05 05:15:46;;;;;;;;;;;;;;;24.38;45.36;101063.50;2075255;28;883;-46
2022/07/05 05:16:47;;;;;;;;;;;;;;;24.34;45.36;101072.72;2074293;28;1040;-47